FBU70A LFPO-FMEE
Flight info
| Callsign | FBU70A |
|---|---|
| Flight time | N/A |
| Altitude | 33000 |
| Route | BUBLI DCT LUVAL DCT SHARA DCT DEVDI DCT RIPUS DCT RESIA DCT PUL DCT ZDA DCT NERRA DCT DBK DCT MOKUN DCT DOBAR DCT BITLA UN137 NEVRA/N0483F370 DCT AKINA DCT LINRO DCT VAXOS UN134 VANZA DCT RASDA A16 CVO L315 HGD V730 MAK T55 DEDLU M999 JDW G650 RASKA/N0495F380 G650 ULONI/N0495F370 UV790 SB UR775 ALNAB/N0491F390 UR775 MOGDU UN304 APKAK/N0491F380 UN304 DENLI/N0492F370 UN304 ANVOR DCT UVENA |
| Aircraft | A35K/H-SDE2E3GHIJ3J4J5LM1ORWXY/LB1D1 |
Departure
| Time | N/A |
|---|---|
| Airport | Paris-Orly Airport (LFPO) |
Arrival
| Time | 2026-05-06 09:15 |
|---|---|
| Airport | Roland Garros Airport (FMEE) |
| Time | Latitude | Longitude | Altitude | Speed | Heading |
|---|---|---|---|---|---|
| 2026-05-06 08:40 | -17.73158 | 53.98578 | 39002 ft | 463 kts | 156° |
| 2026-05-06 08:41 | -17.76088 | 53.99965 | 39003 ft | 462 kts | 156° |
| 2026-05-06 08:41 | -17.81952 | 54.02742 | 39002 ft | 462 kts | 156° |
| 2026-05-06 08:42 | -17.87773 | 54.05502 | 39001 ft | 462 kts | 156° |
| 2026-05-06 08:42 | -17.93635 | 54.08282 | 39003 ft | 462 kts | 156° |
| 2026-05-06 08:43 | -17.99490 | 54.11062 | 39003 ft | 462 kts | 156° |
| 2026-05-06 08:43 | -18.05344 | 54.13843 | 39000 ft | 462 kts | 156° |
| 2026-05-06 08:44 | -18.11198 | 54.16626 | 39003 ft | 462 kts | 156° |
| 2026-05-06 08:44 | -18.17021 | 54.19368 | 39001 ft | 462 kts | 156° |
| 2026-05-06 08:45 | -18.22881 | 54.22126 | 39004 ft | 461 kts | 156° |
| 2026-05-06 08:45 | -18.28741 | 54.24889 | 39004 ft | 461 kts | 156° |
| 2026-05-06 08:46 | -18.34598 | 54.27654 | 39009 ft | 461 kts | 156° |
| 2026-05-06 08:46 | -18.40448 | 54.30418 | 39007 ft | 461 kts | 156° |
| 2026-05-06 08:47 | -18.46262 | 54.33166 | 39006 ft | 461 kts | 156° |
| 2026-05-06 08:47 | -18.52113 | 54.35935 | 39011 ft | 461 kts | 156° |
| 2026-05-06 08:48 | -18.57971 | 54.38709 | 39010 ft | 461 kts | 156° |
| 2026-05-06 08:48 | -18.63863 | 54.41381 | 39009 ft | 461 kts | 160° |
| 2026-05-06 08:49 | -18.69892 | 54.43715 | 39009 ft | 461 kts | 160° |
| 2026-05-06 08:49 | -18.75861 | 54.46067 | 39009 ft | 461 kts | 159° |
| 2026-05-06 08:50 | -18.81873 | 54.48461 | 39011 ft | 464 kts | 159° |
| 2026-05-06 08:50 | -18.84915 | 54.49676 | 38881 ft | 472 kts | 159° |
| 2026-05-06 08:50 | -18.88003 | 54.50911 | 38698 ft | 477 kts | 159° |
| 2026-05-06 08:50 | -18.91115 | 54.52157 | 38463 ft | 479 kts | 159° |
| 2026-05-06 08:51 | -18.94231 | 54.53405 | 38190 ft | 479 kts | 159° |
| 2026-05-06 08:51 | -18.97312 | 54.54640 | 37866 ft | 479 kts | 159° |
| 2026-05-06 08:51 | -19.00412 | 54.55884 | 37322 ft | 476 kts | 159° |
| 2026-05-06 08:51 | -19.03507 | 54.57125 | 36691 ft | 475 kts | 159° |
| 2026-05-06 08:52 | -19.06600 | 54.58366 | 36036 ft | 476 kts | 159° |
| 2026-05-06 08:52 | -19.09697 | 54.59610 | 35371 ft | 477 kts | 159° |
| 2026-05-06 08:52 | -19.12807 | 54.60859 | 34618 ft | 480 kts | 159° |
| 2026-05-06 08:52 | -19.15938 | 54.62117 | 33828 ft | 483 kts | 159° |
| 2026-05-06 08:53 | -19.19084 | 54.63382 | 32988 ft | 486 kts | 159° |
| 2026-05-06 08:53 | -19.22205 | 54.64637 | 32175 ft | 487 kts | 159° |
| 2026-05-06 08:53 | -19.25384 | 54.65916 | 31353 ft | 489 kts | 159° |
| 2026-05-06 08:53 | -19.28557 | 54.67193 | 30779 ft | 486 kts | 159° |
| 2026-05-06 08:54 | -19.31700 | 54.68458 | 30218 ft | 482 kts | 159° |
| 2026-05-06 08:54 | -19.34831 | 54.69720 | 29577 ft | 479 kts | 159° |
| 2026-05-06 08:54 | -19.37932 | 54.70970 | 28977 ft | 475 kts | 159° |
| 2026-05-06 08:54 | -19.40999 | 54.72207 | 28407 ft | 470 kts | 159° |
| 2026-05-06 08:55 | -19.44046 | 54.73437 | 27859 ft | 466 kts | 159° |
| 2026-05-06 08:55 | -19.47022 | 54.74638 | 27313 ft | 462 kts | 159° |
| 2026-05-06 08:55 | -19.50016 | 54.75847 | 26758 ft | 458 kts | 159° |
| 2026-05-06 08:55 | -19.52978 | 54.77043 | 26210 ft | 455 kts | 159° |
| 2026-05-06 08:56 | -19.55924 | 54.78234 | 25660 ft | 451 kts | 159° |
| 2026-05-06 08:56 | -19.58852 | 54.79417 | 25122 ft | 448 kts | 160° |
| 2026-05-06 08:56 | -19.61755 | 54.80591 | 24582 ft | 445 kts | 160° |
| 2026-05-06 08:56 | -19.64636 | 54.81756 | 24041 ft | 442 kts | 160° |
| 2026-05-06 08:57 | -19.67505 | 54.82915 | 23470 ft | 440 kts | 160° |
| 2026-05-06 08:57 | -19.70355 | 54.84063 | 22879 ft | 436 kts | 160° |
| 2026-05-06 08:57 | -19.73136 | 54.85189 | 22322 ft | 432 kts | 160° |
| 2026-05-06 08:57 | -19.75930 | 54.86323 | 21780 ft | 427 kts | 160° |
| 2026-05-06 08:58 | -19.78690 | 54.87442 | 21244 ft | 423 kts | 160° |
| 2026-05-06 08:58 | -19.81428 | 54.88552 | 20700 ft | 419 kts | 160° |
| 2026-05-06 08:58 | -19.84139 | 54.89652 | 20164 ft | 415 kts | 160° |
| 2026-05-06 08:58 | -19.86830 | 54.90740 | 19612 ft | 412 kts | 159° |
| 2026-05-06 08:59 | -19.89499 | 54.91821 | 19078 ft | 409 kts | 159° |
| 2026-05-06 08:59 | -19.92146 | 54.92897 | 18537 ft | 407 kts | 159° |
| 2026-05-06 08:59 | -19.94779 | 54.93968 | 17954 ft | 404 kts | 159° |
| 2026-05-06 08:59 | -19.97355 | 54.95015 | 17393 ft | 400 kts | 159° |
| 2026-05-06 09:00 | -19.99944 | 54.96063 | 16862 ft | 395 kts | 159° |
| 2026-05-06 09:00 | -20.02501 | 54.97100 | 16333 ft | 391 kts | 159° |
| 2026-05-06 09:00 | -20.05028 | 54.98132 | 15815 ft | 387 kts | 158° |
| 2026-05-06 09:00 | -20.07533 | 54.99153 | 15286 ft | 384 kts | 158° |
| 2026-05-06 09:01 | -20.10013 | 55.00160 | 14759 ft | 380 kts | 158° |
| 2026-05-06 09:01 | -20.12474 | 55.01160 | 14247 ft | 377 kts | 158° |
| 2026-05-06 09:01 | -20.14915 | 55.02160 | 13713 ft | 374 kts | 158° |
| 2026-05-06 09:01 | -20.17298 | 55.03135 | 13177 ft | 370 kts | 158° |
| 2026-05-06 09:02 | -20.19690 | 55.04109 | 12665 ft | 366 kts | 158° |
| 2026-05-06 09:02 | -20.22056 | 55.05072 | 12153 ft | 362 kts | 158° |
| 2026-05-06 09:02 | -20.24391 | 55.06023 | 11647 ft | 358 kts | 158° |
| 2026-05-06 09:02 | -20.26701 | 55.06963 | 11292 ft | 350 kts | 158° |
| 2026-05-06 09:03 | -20.28926 | 55.07867 | 11157 ft | 336 kts | 158° |
| 2026-05-06 09:03 | -20.31065 | 55.08741 | 11034 ft | 322 kts | 158° |
| 2026-05-06 09:03 | -20.33088 | 55.09568 | 10908 ft | 310 kts | 158° |
| 2026-05-06 09:03 | -20.35060 | 55.10374 | 10794 ft | 298 kts | 158° |
| 2026-05-06 09:04 | -20.36960 | 55.11149 | 10654 ft | 287 kts | 158° |
| 2026-05-06 09:04 | -20.38800 | 55.11901 | 10391 ft | 282 kts | 158° |
| 2026-05-06 09:04 | -20.40624 | 55.12650 | 10084 ft | 279 kts | 158° |
| 2026-05-06 09:04 | -20.42439 | 55.13394 | 9737 ft | 283 kts | 158° |
| 2026-05-06 09:05 | -20.44305 | 55.14159 | 9426 ft | 290 kts | 158° |
| 2026-05-06 09:05 | -20.46194 | 55.14930 | 9085 ft | 290 kts | 158° |
| 2026-05-06 09:05 | -20.48069 | 55.15695 | 8765 ft | 288 kts | 158° |
| 2026-05-06 09:05 | -20.49911 | 55.16449 | 8449 ft | 286 kts | 158° |
| 2026-05-06 09:06 | -20.51762 | 55.17207 | 8136 ft | 285 kts | 157° |
| 2026-05-06 09:06 | -20.53609 | 55.17964 | 7824 ft | 283 kts | 158° |
| 2026-05-06 09:06 | -20.55442 | 55.18716 | 7509 ft | 281 kts | 157° |
| 2026-05-06 09:06 | -20.57264 | 55.19460 | 7195 ft | 280 kts | 157° |
| 2026-05-06 09:07 | -20.59078 | 55.20201 | 6893 ft | 278 kts | 157° |
| 2026-05-06 09:07 | -20.60878 | 55.20937 | 6583 ft | 277 kts | 157° |
| 2026-05-06 09:07 | -20.62670 | 55.21668 | 6262 ft | 275 kts | 158° |
| 2026-05-06 09:07 | -20.64431 | 55.22389 | 5948 ft | 274 kts | 157° |
| 2026-05-06 09:08 | -20.66204 | 55.23121 | 5656 ft | 273 kts | 157° |
| 2026-05-06 09:08 | -20.67971 | 55.23850 | 5351 ft | 272 kts | 157° |
| 2026-05-06 09:08 | -20.69733 | 55.24577 | 5054 ft | 271 kts | 157° |
| 2026-05-06 09:08 | -20.71491 | 55.25293 | 4739 ft | 270 kts | 158° |
| 2026-05-06 09:09 | -20.73233 | 55.26008 | 4507 ft | 264 kts | 158° |
| 2026-05-06 09:09 | -20.74912 | 55.26694 | 4374 ft | 250 kts | 157° |
| 2026-05-06 09:09 | -20.76485 | 55.27345 | 4232 ft | 237 kts | 156° |
| 2026-05-06 09:09 | -20.77806 | 55.28241 | 4158 ft | 221 kts | 134° |
| 2026-05-06 09:10 | -20.78699 | 55.29528 | 4091 ft | 207 kts | 117° |
| 2026-05-06 09:10 | -20.79302 | 55.30840 | 4002 ft | 193 kts | 114° |
| 2026-05-06 09:10 | -20.79883 | 55.32120 | 3734 ft | 190 kts | 116° |
| 2026-05-06 09:10 | -20.80475 | 55.33365 | 3459 ft | 187 kts | 116° |
| 2026-05-06 09:11 | -20.81052 | 55.34599 | 3190 ft | 184 kts | 114° |
| 2026-05-06 09:11 | -20.81611 | 55.35806 | 2942 ft | 178 kts | 115° |
| 2026-05-06 09:11 | -20.82149 | 55.36955 | 2703 ft | 167 kts | 115° |
| 2026-05-06 09:11 | -20.82651 | 55.38032 | 2505 ft | 157 kts | 114° |
| 2026-05-06 09:12 | -20.83114 | 55.39026 | 2297 ft | 144 kts | 114° |
| 2026-05-06 09:12 | -20.83548 | 55.39959 | 2131 ft | 139 kts | 114° |
| 2026-05-06 09:12 | -20.83980 | 55.40886 | 1965 ft | 140 kts | 115° |
| 2026-05-06 09:12 | -20.84416 | 55.41819 | 1796 ft | 141 kts | 114° |
| 2026-05-06 09:13 | -20.84850 | 55.42752 | 1618 ft | 139 kts | 114° |
| 2026-05-06 09:13 | -20.85283 | 55.43679 | 1451 ft | 140 kts | 112° |
| 2026-05-06 09:13 | -20.85716 | 55.44613 | 1273 ft | 140 kts | 112° |
| 2026-05-06 09:13 | -20.86147 | 55.45540 | 1077 ft | 138 kts | 114° |
| 2026-05-06 09:14 | -20.86574 | 55.46450 | 880 ft | 137 kts | 112° |
| 2026-05-06 09:14 | -20.86991 | 55.47354 | 686 ft | 134 kts | 115° |
| 2026-05-06 09:14 | -20.87403 | 55.48232 | 524 ft | 134 kts | 115° |
| 2026-05-06 09:14 | -20.87819 | 55.49123 | 352 ft | 134 kts | 114° |
| 2026-05-06 09:15 | -20.88230 | 55.50018 | 206 ft | 135 kts | 115° |
| 2026-05-06 09:15 | -20.88650 | 55.50903 | 55 ft | 129 kts | 115° |
| 2026-05-06 09:15 | -20.88989 | 55.51630 | 61 ft | 90 kts | 116° |
| 2026-05-06 09:15 | -20.89203 | 55.52087 | 66 ft | 38 kts | 116° |
| 2026-05-06 09:16 | -20.89275 | 55.52209 | 69 ft | 15 kts | 154° |
| 2026-05-06 09:16 | -20.89370 | 55.52192 | 92 ft | 15 kts | 210° |
| 2026-05-06 09:16 | -20.89385 | 55.52074 | 94 ft | 20 kts | 294° |
| 2026-05-06 09:16 | -20.89319 | 55.51939 | 93 ft | 19 kts | 297° |
| 2026-05-06 09:17 | -20.89261 | 55.51816 | 92 ft | 20 kts | 296° |
| 2026-05-06 09:17 | -20.89194 | 55.51673 | 90 ft | 23 kts | 297° |
| 2026-05-06 09:17 | -20.89124 | 55.51526 | 88 ft | 23 kts | 297° |
| 2026-05-06 09:17 | -20.89065 | 55.51400 | 85 ft | 11 kts | 296° |
| 2026-05-06 09:18 | -20.89055 | 55.51329 | 86 ft | 8 kts | 231° |
| 2026-05-06 09:18 | -20.89093 | 55.51304 | 82 ft | 3 kts | 211° |
| 2026-05-06 09:18 | -20.89098 | 55.51301 | 85 ft | 0 kts | 211° |